sensor_id;sensor_type;location;lat;lon;timestamp;P1;durP1;ratioP1;P2;durP2;ratioP2
4831;SDS011;2430;51.322;7.864;2022-08-01T00:02:13;3.77;;;2.33;;
4831;SDS011;2430;51.322;7.864;2022-08-01T00:04:41;2.33;;;2.13;;
4831;SDS011;2430;51.322;7.864;2022-08-01T00:07:08;3.73;;;2.90;;
4831;SDS011;2430;51.322;7.864;2022-08-01T00:09:34;3.20;;;2.20;;
4831;SDS011;2430;51.322;7.864;2022-08-01T00:12:01;2.77;;;2.30;;
4831;SDS011;2430;51.322;7.864;2022-08-01T00:14:29;2.93;;;2.10;;
4831;SDS011;2430;51.322;7.864;2022-08-01T00:16:56;2.80;;;2.60;;
4831;SDS011;2430;51.322;7.864;2022-08-01T00:19:22;3.73;;;2.50;;
4831;SDS011;2430;51.322;7.864;2022-08-01T00:21:50;3.10;;;2.80;;
4831;SDS011;2430;51.322;7.864;2022-08-01T00:24:17;4.00;;;3.00;;
4831;SDS011;2430;51.322;7.864;2022-08-01T00:26:43;4.10;;;3.60;;
4831;SDS011;2430;51.322;7.864;2022-08-01T00:29:10;3.57;;;2.77;;
4831;SDS011;2430;51.322;7.864;2022-08-01T00:31:36;3.20;;;3.00;;
4831;SDS011;2430;51.322;7.864;2022-08-01T00:34:03;7.00;;;3.43;;
4831;SDS011;2430;51.322;7.864;2022-08-01T00:36:29;4.73;;;3.87;;
4831;SDS011;2430;51.322;7.864;2022-08-01T00:38:57;2.67;;;2.47;;
4831;SDS011;2430;51.322;7.864;2022-08-01T00:41:24;2.80;;;2.60;;
4831;SDS011;2430;51.322;7.864;2022-08-01T00:43:50;5.00;;;2.77;;
4831;SDS011;2430;51.322;7.864;2022-08-01T00:46:17;4.33;;;3.60;;
4831;SDS011;2430;51.322;7.864;2022-08-01T00:48:43;9.53;;;3.03;;
4831;SDS011;2430;51.322;7.864;2022-08-01T00:51:11;10.10;;;4.20;;
4831;SDS011;2430;51.322;7.864;2022-08-01T00:53:38;4.00;;;3.20;;
4831;SDS011;2430;51.322;7.864;2022-08-01T00:56:06;7.23;;;3.33;;
4831;SDS011;2430;51.322;7.864;2022-08-01T00:58:33;14.90;;;3.90;;
4831;SDS011;2430;51.322;7.864;2022-08-01T01:00:59;3.43;;;3.13;;
4831;SDS011;2430;51.322;7.864;2022-08-01T01:03:26;2.83;;;2.60;;
4831;SDS011;2430;51.322;7.864;2022-08-01T01:05:55;6.27;;;3.67;;
4831;SDS011;2430;51.322;7.864;2022-08-01T01:08:24;5.77;;;4.20;;
4831;SDS011;2430;51.322;7.864;2022-08-01T01:10:54;4.57;;;3.03;;
4831;SDS011;2430;51.322;7.864;2022-08-01T01:13:25;4.07;;;3.53;;
4831;SDS011;2430;51.322;7.864;2022-08-01T01:15:55;3.30;;;3.00;;
4831;SDS011;2430;51.322;7.864;2022-08-01T01:18:24;6.00;;;4.37;;
4831;SDS011;2430;51.322;7.864;2022-08-01T01:20:51;3.10;;;2.50;;
4831;SDS011;2430;51.322;7.864;2022-08-01T01:23:38;3.07;;;2.80;;
4831;SDS011;2430;51.322;7.864;2022-08-01T01:26:14;3.37;;;3.07;;
4831;SDS011;2430;51.322;7.864;2022-08-01T01:28:53;4.83;;;3.30;;
4831;SDS011;2430;51.322;7.864;2022-08-01T01:31:21;2.50;;;2.20;;
4831;SDS011;2430;51.322;7.864;2022-08-01T01:33:48;2.63;;;2.43;;
4831;SDS011;2430;51.322;7.864;2022-08-01T01:36:16;3.17;;;1.90;;
4831;SDS011;2430;51.322;7.864;2022-08-01T01:38:44;3.03;;;1.80;;
4831;SDS011;2430;51.322;7.864;2022-08-01T01:41:11;1.50;;;1.40;;
4831;SDS011;2430;51.322;7.864;2022-08-01T01:43:39;1.83;;;1.73;;
4831;SDS011;2430;51.322;7.864;2022-08-01T01:46:08;2.80;;;2.50;;
4831;SDS011;2430;51.322;7.864;2022-08-01T01:48:35;3.80;;;2.40;;
4831;SDS011;2430;51.322;7.864;2022-08-01T01:51:02;6.43;;;3.67;;
4831;SDS011;2430;51.322;7.864;2022-08-01T01:53:29;3.37;;;3.07;;
4831;SDS011;2430;51.322;7.864;2022-08-01T01:56:00;1.73;;;1.63;;
4831;SDS011;2430;51.322;7.864;2022-08-01T01:58:27;2.10;;;2.00;;
4831;SDS011;2430;51.322;7.864;2022-08-01T02:00:55;3.57;;;3.00;;
4831;SDS011;2430;51.322;7.864;2022-08-01T02:03:24;6.30;;;2.40;;
4831;SDS011;2430;51.322;7.864;2022-08-01T02:05:51;2.33;;;2.13;;
4831;SDS011;2430;51.322;7.864;2022-08-01T02:08:19;3.33;;;2.83;;
4831;SDS011;2430;51.322;7.864;2022-08-01T02:10:46;3.50;;;2.53;;
4831;SDS011;2430;51.322;7.864;2022-08-01T02:13:26;3.37;;;2.53;;
4831;SDS011;2430;51.322;7.864;2022-08-01T02:15:53;3.03;;;2.73;;
4831;SDS011;2430;51.322;7.864;2022-08-01T02:18:20;3.50;;;2.87;;
4831;SDS011;2430;51.322;7.864;2022-08-01T02:20:48;4.90;;;4.20;;
4831;SDS011;2430;51.322;7.864;2022-08-01T02:23:15;5.50;;;3.87;;
4831;SDS011;2430;51.322;7.864;2022-08-01T02:25:43;9.50;;;6.17;;
4831;SDS011;2430;51.322;7.864;2022-08-01T02:28:13;8.10;;;5.40;;
4831;SDS011;2430;51.322;7.864;2022-08-01T02:30:42;4.87;;;4.33;;
4831;SDS011;2430;51.322;7.864;2022-08-01T02:33:11;5.97;;;4.67;;
4831;SDS011;2430;51.322;7.864;2022-08-01T02:35:41;12.13;;;6.13;;
4831;SDS011;2430;51.322;7.864;2022-08-01T02:38:10;8.77;;;5.83;;
4831;SDS011;2430;51.322;7.864;2022-08-01T02:40:37;14.00;;;5.20;;
4831;SDS011;2430;51.322;7.864;2022-08-01T02:43:04;7.80;;;6.43;;
4831;SDS011;2430;51.322;7.864;2022-08-01T02:45:31;9.90;;;6.73;;
4831;SDS011;2430;51.322;7.864;2022-08-01T02:48:01;8.40;;;5.50;;
4831;SDS011;2430;51.322;7.864;2022-08-01T02:50:30;5.43;;;4.93;;
4831;SDS011;2430;51.322;7.864;2022-08-01T02:52:57;5.47;;;4.30;;
4831;SDS011;2430;51.322;7.864;2022-08-01T02:55:26;7.70;;;4.70;;
4831;SDS011;2430;51.322;7.864;2022-08-01T02:57:53;8.10;;;4.23;;
4831;SDS011;2430;51.322;7.864;2022-08-01T03:00:21;7.40;;;4.17;;
4831;SDS011;2430;51.322;7.864;2022-08-01T03:02:48;4.40;;;4.00;;
4831;SDS011;2430;51.322;7.864;2022-08-01T03:05:15;3.37;;;3.10;;
4831;SDS011;2430;51.322;7.864;2022-08-01T03:07:43;3.57;;;3.27;;
4831;SDS011;2430;51.322;7.864;2022-08-01T03:10:10;3.43;;;3.07;;
4831;SDS011;2430;51.322;7.864;2022-08-01T03:12:38;3.40;;;2.50;;
4831;SDS011;2430;51.322;7.864;2022-08-01T03:15:06;6.60;;;3.00;;
4831;SDS011;2430;51.322;7.864;2022-08-01T03:17:33;2.93;;;2.30;;
4831;SDS011;2430;51.322;7.864;2022-08-01T03:20:01;1.73;;;1.50;;
4831;SDS011;2430;51.322;7.864;2022-08-01T03:22:28;2.90;;;2.70;;
4831;SDS011;2430;51.322;7.864;2022-08-01T03:24:56;4.13;;;2.80;;
4831;SDS011;2430;51.322;7.864;2022-08-01T03:27:23;7.20;;;3.43;;
4831;SDS011;2430;51.322;7.864;2022-08-01T03:29:52;3.50;;;2.53;;
4831;SDS011;2430;51.322;7.864;2022-08-01T03:32:22;4.47;;;3.20;;
4831;SDS011;2430;51.322;7.864;2022-08-01T03:34:49;4.00;;;3.37;;
4831;SDS011;2430;51.322;7.864;2022-08-01T03:37:17;10.73;;;6.03;;
4831;SDS011;2430;51.322;7.864;2022-08-01T03:39:46;5.53;;;4.10;;
4831;SDS011;2430;51.322;7.864;2022-08-01T03:42:15;7.87;;;7.10;;
4831;SDS011;2430;51.322;7.864;2022-08-01T03:44:42;7.23;;;5.33;;
4831;SDS011;2430;51.322;7.864;2022-08-01T03:47:15;5.93;;;5.33;;
4831;SDS011;2430;51.322;7.864;2022-08-01T03:49:43;7.47;;;5.90;;
4831;SDS011;2430;51.322;7.864;2022-08-01T03:52:10;13.23;;;6.10;;
4831;SDS011;2430;51.322;7.864;2022-08-01T03:54:38;15.07;;;8.87;;
4831;SDS011;2430;51.322;7.864;2022-08-01T03:57:06;9.53;;;5.53;;
4831;SDS011;2430;51.322;7.864;2022-08-01T03:59:33;8.80;;;6.27;;
4831;SDS011;2430;51.322;7.864;2022-08-01T04:02:01;10.40;;;7.40;;
4831;SDS011;2430;51.322;7.864;2022-08-01T04:04:30;9.80;;;6.70;;
4831;SDS011;2430;51.322;7.864;2022-08-01T04:06:57;9.30;;;6.57;;
4831;SDS011;2430;51.322;7.864;2022-08-01T04:09:29;13.07;;;8.50;;
4831;SDS011;2430;51.322;7.864;2022-08-01T04:11:56;17.93;;;8.03;;
4831;SDS011;2430;51.322;7.864;2022-08-01T04:14:24;10.83;;;8.00;;
4831;SDS011;2430;51.322;7.864;2022-08-01T04:16:50;8.73;;;7.47;;
4831;SDS011;2430;51.322;7.864;2022-08-01T04:19:17;14.40;;;8.27;;
4831;SDS011;2430;51.322;7.864;2022-08-01T04:21:45;8.90;;;6.40;;
4831;SDS011;2430;51.322;7.864;2022-08-01T04:24:12;21.80;;;9.00;;
4831;SDS011;2430;51.322;7.864;2022-08-01T04:26:40;12.30;;;8.07;;
4831;SDS011;2430;51.322;7.864;2022-08-01T04:29:07;12.17;;;8.07;;
4831;SDS011;2430;51.322;7.864;2022-08-01T04:31:35;19.23;;;7.23;;
4831;SDS011;2430;51.322;7.864;2022-08-01T04:34:04;11.57;;;6.80;;
4831;SDS011;2430;51.322;7.864;2022-08-01T04:36:30;9.30;;;5.90;;
4831;SDS011;2430;51.322;7.864;2022-08-01T04:39:00;9.07;;;7.00;;
4831;SDS011;2430;51.322;7.864;2022-08-01T04:41:27;7.20;;;6.40;;
4831;SDS011;2430;51.322;7.864;2022-08-01T04:43:56;9.53;;;6.47;;
4831;SDS011;2430;51.322;7.864;2022-08-01T04:46:24;8.00;;;4.13;;
4831;SDS011;2430;51.322;7.864;2022-08-01T04:48:52;9.77;;;6.03;;
4831;SDS011;2430;51.322;7.864;2022-08-01T04:51:20;7.23;;;3.90;;
4831;SDS011;2430;51.322;7.864;2022-08-01T04:53:47;10.17;;;8.03;;
4831;SDS011;2430;51.322;7.864;2022-08-01T04:56:17;10.00;;;5.97;;
4831;SDS011;2430;51.322;7.864;2022-08-01T04:58:44;11.40;;;6.27;;
4831;SDS011;2430;51.322;7.864;2022-08-01T05:01:10;6.43;;;5.80;;
4831;SDS011;2430;51.322;7.864;2022-08-01T05:03:37;10.90;;;7.20;;
4831;SDS011;2430;51.322;7.864;2022-08-01T05:06:03;9.33;;;5.60;;
4831;SDS011;2430;51.322;7.864;2022-08-01T05:08:30;11.70;;;5.37;;
4831;SDS011;2430;51.322;7.864;2022-08-01T05:10:57;7.87;;;5.53;;
4831;SDS011;2430;51.322;7.864;2022-08-01T05:13:25;6.17;;;5.63;;
4831;SDS011;2430;51.322;7.864;2022-08-01T05:15:51;5.70;;;4.30;;
4831;SDS011;2430;51.322;7.864;2022-08-01T05:18:18;6.07;;;5.57;;
4831;SDS011;2430;51.322;7.864;2022-08-01T05:20:45;6.27;;;5.30;;
4831;SDS011;2430;51.322;7.864;2022-08-01T05:23:12;9.20;;;6.97;;
4831;SDS011;2430;51.322;7.864;2022-08-01T05:25:39;9.20;;;6.47;;
4831;SDS011;2430;51.322;7.864;2022-08-01T05:28:05;6.53;;;5.27;;
4831;SDS011;2430;51.322;7.864;2022-08-01T05:30:33;7.77;;;5.07;;
4831;SDS011;2430;51.322;7.864;2022-08-01T05:33:00;8.40;;;6.10;;
4831;SDS011;2430;51.322;7.864;2022-08-01T05:35:26;4.60;;;4.17;;
4831;SDS011;2430;51.322;7.864;2022-08-01T05:37:53;5.03;;;3.93;;
4831;SDS011;2430;51.322;7.864;2022-08-01T05:40:20;4.97;;;3.87;;
4831;SDS011;2430;51.322;7.864;2022-08-01T05:42:47;18.23;;;4.80;;
4831;SDS011;2430;51.322;7.864;2022-08-01T05:45:13;5.23;;;4.13;;
4831;SDS011;2430;51.322;7.864;2022-08-01T05:47:41;3.13;;;2.83;;
4831;SDS011;2430;51.322;7.864;2022-08-01T05:50:08;3.00;;;2.70;;
4831;SDS011;2430;51.322;7.864;2022-08-01T05:52:35;3.13;;;2.83;;
4831;SDS011;2430;51.322;7.864;2022-08-01T05:55:02;3.87;;;3.03;;
4831;SDS011;2430;51.322;7.864;2022-08-01T05:57:28;2.60;;;2.40;;
4831;SDS011;2430;51.322;7.864;2022-08-01T05:59:55;4.20;;;2.83;;
4831;SDS011;2430;51.322;7.864;2022-08-01T06:02:21;5.20;;;2.83;;
4831;SDS011;2430;51.322;7.864;2022-08-01T06:04:49;3.27;;;2.57;;
4831;SDS011;2430;51.322;7.864;2022-08-01T06:07:16;4.20;;;2.70;;
4831;SDS011;2430;51.322;7.864;2022-08-01T06:09:43;5.00;;;3.20;;
4831;SDS011;2430;51.322;7.864;2022-08-01T06:12:09;2.90;;;2.60;;
4831;SDS011;2430;51.322;7.864;2022-08-01T06:14:36;2.90;;;2.63;;
4831;SDS011;2430;51.322;7.864;2022-08-01T06:17:02;4.23;;;3.67;;
4831;SDS011;2430;51.322;7.864;2022-08-01T06:19:29;3.27;;;2.77;;
4831;SDS011;2430;51.322;7.864;2022-08-01T06:21:57;4.20;;;2.70;;
4831;SDS011;2430;51.322;7.864;2022-08-01T06:24:24;3.37;;;3.07;;
4831;SDS011;2430;51.322;7.864;2022-08-01T06:26:51;4.10;;;2.40;;
4831;SDS011;2430;51.322;7.864;2022-08-01T06:29:18;5.20;;;2.67;;
4831;SDS011;2430;51.322;7.864;2022-08-01T06:31:44;3.60;;;3.07;;
4831;SDS011;2430;51.322;7.864;2022-08-01T06:34:11;3.53;;;2.30;;
4831;SDS011;2430;51.322;7.864;2022-08-01T06:36:37;3.10;;;2.80;;
4831;SDS011;2430;51.322;7.864;2022-08-01T06:39:05;3.20;;;2.37;;
4831;SDS011;2430;51.322;7.864;2022-08-01T06:41:32;4.63;;;4.17;;
4831;SDS011;2430;51.322;7.864;2022-08-01T06:43:58;4.73;;;3.70;;
4831;SDS011;2430;51.322;7.864;2022-08-01T06:46:27;3.00;;;2.80;;
4831;SDS011;2430;51.322;7.864;2022-08-01T06:48:53;9.13;;;4.37;;
4831;SDS011;2430;51.322;7.864;2022-08-01T06:51:20;3.93;;;3.50;;
4831;SDS011;2430;51.322;7.864;2022-08-01T06:53:46;5.10;;;4.00;;
4831;SDS011;2430;51.322;7.864;2022-08-01T06:56:14;2.50;;;2.27;;
4831;SDS011;2430;51.322;7.864;2022-08-01T06:58:41;3.00;;;2.70;;
4831;SDS011;2430;51.322;7.864;2022-08-01T07:01:07;2.50;;;2.30;;
4831;SDS011;2430;51.322;7.864;2022-08-01T07:03:34;4.07;;;3.00;;
4831;SDS011;2430;51.322;7.864;2022-08-01T07:06:00;2.10;;;2.00;;
4831;SDS011;2430;51.322;7.864;2022-08-01T07:08:27;3.13;;;2.63;;
4831;SDS011;2430;51.322;7.864;2022-08-01T07:10:54;3.33;;;3.13;;
4831;SDS011;2430;51.322;7.864;2022-08-01T07:13:22;7.73;;;3.77;;
4831;SDS011;2430;51.322;7.864;2022-08-01T07:15:50;1.73;;;1.60;;
4831;SDS011;2430;51.322;7.864;2022-08-01T07:18:16;2.50;;;2.30;;
4831;SDS011;2430;51.322;7.864;2022-08-01T07:20:43;2.70;;;2.10;;
4831;SDS011;2430;51.322;7.864;2022-08-01T07:23:11;4.30;;;2.30;;
4831;SDS011;2430;51.322;7.864;2022-08-01T07:25:40;2.10;;;2.00;;
4831;SDS011;2430;51.322;7.864;2022-08-01T07:28:07;2.20;;;1.93;;
4831;SDS011;2430;51.322;7.864;2022-08-01T07:30:35;1.63;;;1.30;;
4831;SDS011;2430;51.322;7.864;2022-08-01T07:33:02;2.10;;;1.90;;
4831;SDS011;2430;51.322;7.864;2022-08-01T07:35:28;2.20;;;1.90;;
4831;SDS011;2430;51.322;7.864;2022-08-01T07:37:55;1.83;;;1.73;;
4831;SDS011;2430;51.322;7.864;2022-08-01T07:40:21;1.80;;;1.70;;
4831;SDS011;2430;51.322;7.864;2022-08-01T07:42:48;1.73;;;1.63;;
4831;SDS011;2430;51.322;7.864;2022-08-01T07:45:14;2.70;;;1.93;;
4831;SDS011;2430;51.322;7.864;2022-08-01T07:47:43;1.80;;;1.53;;
4831;SDS011;2430;51.322;7.864;2022-08-01T07:50:10;2.40;;;1.47;;
4831;SDS011;2430;51.322;7.864;2022-08-01T07:52:37;2.13;;;1.87;;
4831;SDS011;2430;51.322;7.864;2022-08-01T07:55:04;1.30;;;1.20;;
4831;SDS011;2430;51.322;7.864;2022-08-01T07:57:31;6.10;;;3.50;;
4831;SDS011;2430;51.322;7.864;2022-08-01T07:59:57;1.90;;;1.30;;
4831;SDS011;2430;51.322;7.864;2022-08-01T08:02:24;2.10;;;1.90;;
4831;SDS011;2430;51.322;7.864;2022-08-01T08:04:52;2.30;;;2.10;;
4831;SDS011;2430;51.322;7.864;2022-08-01T08:07:18;4.53;;;2.67;;
4831;SDS011;2430;51.322;7.864;2022-08-01T08:09:45;2.00;;;1.60;;
4831;SDS011;2430;51.322;7.864;2022-08-01T08:12:11;1.80;;;1.70;;
4831;SDS011;2430;51.322;7.864;2022-08-01T08:14:38;1.40;;;1.30;;
4831;SDS011;2430;51.322;7.864;2022-08-01T08:17:05;2.07;;;1.87;;
4831;SDS011;2430;51.322;7.864;2022-08-01T08:19:32;2.80;;;1.83;;
4831;SDS011;2430;51.322;7.864;2022-08-01T08:22:00;2.87;;;2.57;;
4831;SDS011;2430;51.322;7.864;2022-08-01T08:24:26;10.07;;;3.27;;
4831;SDS011;2430;51.322;7.864;2022-08-01T08:26:53;2.97;;;2.00;;
4831;SDS011;2430;51.322;7.864;2022-08-01T08:29:20;2.90;;;2.70;;
4831;SDS011;2430;51.322;7.864;2022-08-01T08:31:48;1.90;;;1.80;;
4831;SDS011;2430;51.322;7.864;2022-08-01T08:34:14;2.07;;;1.87;;
4831;SDS011;2430;51.322;7.864;2022-08-01T08:36:41;2.03;;;1.83;;
4831;SDS011;2430;51.322;7.864;2022-08-01T08:39:09;2.17;;;1.40;;
4831;SDS011;2430;51.322;7.864;2022-08-01T08:41:35;5.80;;;2.40;;
4831;SDS011;2430;51.322;7.864;2022-08-01T08:44:02;3.50;;;2.00;;
4831;SDS011;2430;51.322;7.864;2022-08-01T08:46:29;3.90;;;1.87;;
4831;SDS011;2430;51.322;7.864;2022-08-01T08:48:57;1.80;;;1.70;;
4831;SDS011;2430;51.322;7.864;2022-08-01T08:51:25;1.97;;;1.47;;
4831;SDS011;2430;51.322;7.864;2022-08-01T08:53:52;1.73;;;1.63;;
4831;SDS011;2430;51.322;7.864;2022-08-01T08:56:23;3.43;;;1.77;;
4831;SDS011;2430;51.322;7.864;2022-08-01T08:58:50;2.50;;;2.10;;
4831;SDS011;2430;51.322;7.864;2022-08-01T09:01:17;4.40;;;1.87;;
4831;SDS011;2430;51.322;7.864;2022-08-01T09:03:44;2.73;;;2.20;;
4831;SDS011;2430;51.322;7.864;2022-08-01T09:06:11;3.80;;;3.03;;
4831;SDS011;2430;51.322;7.864;2022-08-01T09:08:37;2.40;;;2.00;;
4831;SDS011;2430;51.322;7.864;2022-08-01T09:11:04;3.20;;;2.03;;
4831;SDS011;2430;51.322;7.864;2022-08-01T09:13:31;2.10;;;1.90;;
4831;SDS011;2430;51.322;7.864;2022-08-01T09:15:58;2.50;;;2.00;;
4831;SDS011;2430;51.322;7.864;2022-08-01T09:18:29;4.63;;;2.23;;
4831;SDS011;2430;51.322;7.864;2022-08-01T09:23:44;3.13;;;2.33;;
4831;SDS011;2430;51.322;7.864;2022-08-01T09:26:14;2.00;;;1.80;;
4831;SDS011;2430;51.322;7.864;2022-08-01T09:28:43;3.07;;;2.60;;
4831;SDS011;2430;51.322;7.864;2022-08-01T09:31:12;2.30;;;1.60;;
4831;SDS011;2430;51.322;7.864;2022-08-01T09:33:49;2.47;;;1.90;;
4831;SDS011;2430;51.322;7.864;2022-08-01T09:36:16;2.13;;;1.93;;
4831;SDS011;2430;51.322;7.864;2022-08-01T09:38:42;2.57;;;2.00;;
4831;SDS011;2430;51.322;7.864;2022-08-01T09:41:09;2.40;;;2.00;;
4831;SDS011;2430;51.322;7.864;2022-08-01T09:43:36;2.87;;;2.53;;
4831;SDS011;2430;51.322;7.864;2022-08-01T09:46:05;2.50;;;2.20;;
4831;SDS011;2430;51.322;7.864;2022-08-01T09:48:35;2.23;;;1.97;;
4831;SDS011;2430;51.322;7.864;2022-08-01T09:51:04;1.83;;;1.63;;
4831;SDS011;2430;51.322;7.864;2022-08-01T09:53:39;2.83;;;2.17;;
4831;SDS011;2430;51.322;7.864;2022-08-01T09:56:09;1.37;;;1.27;;
4831;SDS011;2430;51.322;7.864;2022-08-01T09:58:46;1.57;;;1.13;;
4831;SDS011;2430;51.322;7.864;2022-08-01T10:01:22;1.93;;;1.63;;
4831;SDS011;2430;51.322;7.864;2022-08-01T10:04:03;1.60;;;1.40;;
4831;SDS011;2430;51.322;7.864;2022-08-01T10:06:30;1.70;;;1.60;;
4831;SDS011;2430;51.322;7.864;2022-08-01T10:08:57;1.33;;;1.23;;
4831;SDS011;2430;51.322;7.864;2022-08-01T10:11:24;1.60;;;1.50;;
4831;SDS011;2430;51.322;7.864;2022-08-01T10:13:50;1.73;;;1.30;;
4831;SDS011;2430;51.322;7.864;2022-08-01T10:16:17;2.77;;;1.87;;
4831;SDS011;2430;51.322;7.864;2022-08-01T10:18:46;1.40;;;1.30;;
4831;SDS011;2430;51.322;7.864;2022-08-01T10:21:13;1.10;;;1.00;;
4831;SDS011;2430;51.322;7.864;2022-08-01T10:23:40;1.60;;;1.50;;
4831;SDS011;2430;51.322;7.864;2022-08-01T10:26:08;4.83;;;1.60;;
4831;SDS011;2430;51.322;7.864;2022-08-01T10:28:37;1.00;;;0.90;;
4831;SDS011;2430;51.322;7.864;2022-08-01T10:31:04;1.00;;;0.90;;
4831;SDS011;2430;51.322;7.864;2022-08-01T10:33:31;1.43;;;1.20;;
4831;SDS011;2430;51.322;7.864;2022-08-01T10:36:00;1.43;;;1.20;;
4831;SDS011;2430;51.322;7.864;2022-08-01T10:38:27;1.10;;;1.00;;
4831;SDS011;2430;51.322;7.864;2022-08-01T10:40:53;1.43;;;1.20;;
4831;SDS011;2430;51.322;7.864;2022-08-01T10:43:21;1.30;;;1.20;;
4831;SDS011;2430;51.322;7.864;2022-08-01T10:45:47;0.80;;;0.80;;
4831;SDS011;2430;51.322;7.864;2022-08-01T10:48:16;1.03;;;0.93;;
4831;SDS011;2430;51.322;7.864;2022-08-01T10:50:45;1.03;;;0.87;;
4831;SDS011;2430;51.322;7.864;2022-08-01T10:53:14;1.47;;;1.23;;
4831;SDS011;2430;51.322;7.864;2022-08-01T10:55:51;2.30;;;1.30;;
4831;SDS011;2430;51.322;7.864;2022-08-01T10:58:24;1.07;;;1.03;;
4831;SDS011;2430;51.322;7.864;2022-08-01T11:03:35;1.27;;;1.00;;
4831;SDS011;2430;51.322;7.864;2022-08-01T11:06:03;1.03;;;1.00;;
4831;SDS011;2430;51.322;7.864;2022-08-01T11:08:31;1.10;;;0.83;;
4831;SDS011;2430;51.322;7.864;2022-08-01T11:11:02;5.50;;;1.10;;
4831;SDS011;2430;51.322;7.864;2022-08-01T11:16:27;1.23;;;1.10;;
4831;SDS011;2430;51.322;7.864;2022-08-01T11:18:54;2.13;;;1.40;;
4831;SDS011;2430;51.322;7.864;2022-08-01T11:21:21;1.13;;;0.97;;
4831;SDS011;2430;51.322;7.864;2022-08-01T11:23:50;0.90;;;0.90;;
4831;SDS011;2430;51.322;7.864;2022-08-01T11:26:18;1.00;;;0.73;;
4831;SDS011;2430;51.322;7.864;2022-08-01T11:28:46;1.73;;;1.20;;
4831;SDS011;2430;51.322;7.864;2022-08-01T11:31:28;1.60;;;1.50;;
4831;SDS011;2430;51.322;7.864;2022-08-01T11:33:55;1.73;;;1.50;;
4831;SDS011;2430;51.322;7.864;2022-08-01T11:36:22;1.50;;;1.30;;
4831;SDS011;2430;51.322;7.864;2022-08-01T11:41:37;1.63;;;1.53;;
4831;SDS011;2430;51.322;7.864;2022-08-01T11:44:04;1.40;;;1.30;;
4831;SDS011;2430;51.322;7.864;2022-08-01T11:46:47;1.40;;;1.30;;
4831;SDS011;2430;51.322;7.864;2022-08-01T11:49:23;1.17;;;1.07;;
4831;SDS011;2430;51.322;7.864;2022-08-01T11:51:56;1.10;;;1.00;;
4831;SDS011;2430;51.322;7.864;2022-08-01T11:54:25;1.50;;;1.40;;
4831;SDS011;2430;51.322;7.864;2022-08-01T11:56:53;2.93;;;1.33;;
4831;SDS011;2430;51.322;7.864;2022-08-01T11:59:21;1.40;;;1.20;;
4831;SDS011;2430;51.322;7.864;2022-08-01T12:01:48;1.37;;;1.20;;
4831;SDS011;2430;51.322;7.864;2022-08-01T12:04:15;1.47;;;1.03;;
4831;SDS011;2430;51.322;7.864;2022-08-01T12:06:41;1.57;;;1.20;;
4831;SDS011;2430;51.322;7.864;2022-08-01T12:09:15;1.73;;;1.23;;
4831;SDS011;2430;51.322;7.864;2022-08-01T12:11:43;1.27;;;1.17;;
4831;SDS011;2430;51.322;7.864;2022-08-01T12:14:09;4.93;;;1.30;;
4831;SDS011;2430;51.322;7.864;2022-08-01T12:16:47;1.10;;;1.00;;
4831;SDS011;2430;51.322;7.864;2022-08-01T12:19:17;2.90;;;1.33;;
4831;SDS011;2430;51.322;7.864;2022-08-01T12:21:43;1.03;;;0.90;;
4831;SDS011;2430;51.322;7.864;2022-08-01T12:24:10;1.00;;;0.80;;
4831;SDS011;2430;51.322;7.864;2022-08-01T12:26:40;1.10;;;1.00;;
4831;SDS011;2430;51.322;7.864;2022-08-01T12:29:07;0.80;;;0.73;;
4831;SDS011;2430;51.322;7.864;2022-08-01T12:31:34;1.27;;;1.00;;
4831;SDS011;2430;51.322;7.864;2022-08-01T12:36:46;0.87;;;0.60;;
4831;SDS011;2430;51.322;7.864;2022-08-01T12:39:12;0.77;;;0.70;;
4831;SDS011;2430;51.322;7.864;2022-08-01T12:41:39;1.00;;;0.87;;
4831;SDS011;2430;51.322;7.864;2022-08-01T12:44:14;0.83;;;0.80;;
4831;SDS011;2430;51.322;7.864;2022-08-01T12:46:41;0.80;;;0.70;;
4831;SDS011;2430;51.322;7.864;2022-08-01T12:49:07;0.90;;;0.90;;
4831;SDS011;2430;51.322;7.864;2022-08-01T12:51:34;0.70;;;0.70;;
4831;SDS011;2430;51.322;7.864;2022-08-01T12:54:01;0.90;;;0.80;;
4831;SDS011;2430;51.322;7.864;2022-08-01T12:56:32;2.10;;;0.83;;
4831;SDS011;2430;51.322;7.864;2022-08-01T12:58:59;1.00;;;0.90;;
4831;SDS011;2430;51.322;7.864;2022-08-01T13:01:28;0.97;;;0.87;;
4831;SDS011;2430;51.322;7.864;2022-08-01T13:03:58;1.10;;;1.00;;
4831;SDS011;2430;51.322;7.864;2022-08-01T13:06:27;1.00;;;0.80;;
4831;SDS011;2430;51.322;7.864;2022-08-01T13:08:54;1.07;;;0.93;;
4831;SDS011;2430;51.322;7.864;2022-08-01T13:11:21;0.70;;;0.70;;
4831;SDS011;2430;51.322;7.864;2022-08-01T13:13:48;0.97;;;0.87;;
4831;SDS011;2430;51.322;7.864;2022-08-01T13:16:14;0.70;;;0.70;;
4831;SDS011;2430;51.322;7.864;2022-08-01T13:18:43;0.90;;;0.90;;
4831;SDS011;2430;51.322;7.864;2022-08-01T13:21:14;1.13;;;1.03;;
4831;SDS011;2430;51.322;7.864;2022-08-01T13:23:41;1.17;;;0.83;;
4831;SDS011;2430;51.322;7.864;2022-08-01T13:26:08;1.00;;;0.80;;
4831;SDS011;2430;51.322;7.864;2022-08-01T13:28:35;1.67;;;0.97;;
4831;SDS011;2430;51.322;7.864;2022-08-01T13:31:04;1.10;;;1.00;;
4831;SDS011;2430;51.322;7.864;2022-08-01T13:33:39;1.10;;;0.70;;
4831;SDS011;2430;51.322;7.864;2022-08-01T13:36:08;0.80;;;0.67;;
4831;SDS011;2430;51.322;7.864;2022-08-01T13:38:34;0.70;;;0.70;;
4831;SDS011;2430;51.322;7.864;2022-08-01T13:41:18;0.90;;;0.80;;
4831;SDS011;2430;51.322;7.864;2022-08-01T13:43:45;1.23;;;0.70;;
4831;SDS011;2430;51.322;7.864;2022-08-01T13:46:12;0.90;;;0.80;;
4831;SDS011;2430;51.322;7.864;2022-08-01T13:48:38;1.13;;;0.80;;
4831;SDS011;2430;51.322;7.864;2022-08-01T13:51:05;1.00;;;0.80;;
4831;SDS011;2430;51.322;7.864;2022-08-01T13:53:33;1.00;;;0.90;;
4831;SDS011;2430;51.322;7.864;2022-08-01T13:56:00;0.90;;;0.80;;
4831;SDS011;2430;51.322;7.864;2022-08-01T13:58:27;1.00;;;0.90;;
4831;SDS011;2430;51.322;7.864;2022-08-01T14:00:53;1.60;;;0.87;;
4831;SDS011;2430;51.322;7.864;2022-08-01T14:03:20;0.80;;;0.70;;
4831;SDS011;2430;51.322;7.864;2022-08-01T14:05:47;1.07;;;0.97;;
4831;SDS011;2430;51.322;7.864;2022-08-01T14:08:14;0.80;;;0.73;;
4831;SDS011;2430;51.322;7.864;2022-08-01T14:10:41;0.80;;;0.80;;
4831;SDS011;2430;51.322;7.864;2022-08-01T14:13:09;0.80;;;0.70;;
4831;SDS011;2430;51.322;7.864;2022-08-01T14:15:35;1.57;;;0.87;;
4831;SDS011;2430;51.322;7.864;2022-08-01T14:18:02;1.00;;;0.83;;
4831;SDS011;2430;51.322;7.864;2022-08-01T14:20:28;1.10;;;0.83;;
4831;SDS011;2430;51.322;7.864;2022-08-01T14:22:55;1.07;;;0.97;;
4831;SDS011;2430;51.322;7.864;2022-08-01T14:25:22;0.90;;;0.70;;
4831;SDS011;2430;51.322;7.864;2022-08-01T14:27:50;1.37;;;0.90;;
4831;SDS011;2430;51.322;7.864;2022-08-01T14:30:16;1.43;;;0.77;;
4831;SDS011;2430;51.322;7.864;2022-08-01T14:32:43;2.60;;;0.80;;
4831;SDS011;2430;51.322;7.864;2022-08-01T14:35:09;1.00;;;0.87;;
4831;SDS011;2430;51.322;7.864;2022-08-01T14:37:36;0.90;;;0.70;;
4831;SDS011;2430;51.322;7.864;2022-08-01T14:40:03;0.70;;;0.70;;
4831;SDS011;2430;51.322;7.864;2022-08-01T14:42:32;0.80;;;0.80;;
4831;SDS011;2430;51.322;7.864;2022-08-01T14:45:00;0.70;;;0.67;;
4831;SDS011;2430;51.322;7.864;2022-08-01T14:47:27;0.70;;;0.70;;
4831;SDS011;2430;51.322;7.864;2022-08-01T14:49:53;0.80;;;0.70;;
4831;SDS011;2430;51.322;7.864;2022-08-01T14:52:20;0.90;;;0.60;;
4831;SDS011;2430;51.322;7.864;2022-08-01T14:54:46;1.17;;;0.90;;
4831;SDS011;2430;51.322;7.864;2022-08-01T14:57:13;0.70;;;0.60;;
4831;SDS011;2430;51.322;7.864;2022-08-01T14:59:43;0.70;;;0.60;;
4831;SDS011;2430;51.322;7.864;2022-08-01T15:02:11;0.80;;;0.80;;
4831;SDS011;2430;51.322;7.864;2022-08-01T15:04:42;0.70;;;0.50;;
4831;SDS011;2430;51.322;7.864;2022-08-01T15:07:08;1.13;;;0.70;;
4831;SDS011;2430;51.322;7.864;2022-08-01T15:09:35;0.90;;;0.80;;
4831;SDS011;2430;51.322;7.864;2022-08-01T15:12:01;1.00;;;0.80;;
4831;SDS011;2430;51.322;7.864;2022-08-01T15:14:28;0.70;;;0.60;;
4831;SDS011;2430;51.322;7.864;2022-08-01T15:17:13;0.70;;;0.60;;
4831;SDS011;2430;51.322;7.864;2022-08-01T15:19:40;1.97;;;1.37;;
4831;SDS011;2430;51.322;7.864;2022-08-01T15:22:06;0.93;;;0.83;;
4831;SDS011;2430;51.322;7.864;2022-08-01T15:24:33;0.80;;;0.70;;
4831;SDS011;2430;51.322;7.864;2022-08-01T15:26:59;0.90;;;0.70;;
4831;SDS011;2430;51.322;7.864;2022-08-01T15:29:26;5.30;;;0.77;;
4831;SDS011;2430;51.322;7.864;2022-08-01T15:31:52;1.30;;;1.20;;
4831;SDS011;2430;51.322;7.864;2022-08-01T15:34:21;0.97;;;0.83;;